PWSweather.com
Personal Weather Stations
Station Observations
RAINWISE1
Rainwise Factory, Bar Harbor, ME 04609

Rainwise FactoryBar Harbor, ME 04609

Lat: 44.3897429696629, Lon: -68.2077813148499

Elevation: 29

Station Type: Rainwise MK-III

Latest ConditionsUpdated 9:49:00 AM EDT Sunday, Jun 25, 2017
Currently Today's Max Today's Min Today's Average
Temperature 73.8°F23.2°C 73.8°F23.2°C 57.7°F14.3°C 63.8°F17.7°C
Dew Point 57.1°F13.9°C 62.1°F16.7°C 54.8°F12.7°C 57.2°F14.0°C
Winds 1.9 mph NW3.1 kmh NW 6.2 mph N10.0 kmh N - 1.9 mph 3.1 kmh
Wind Gusts 4.1 mph6.6 kmh 10.4 mph16.7 kmh - -
Humidity 56% 94% 55% 80%
Pressure 29.92 in1013.2 mb 29.93 in1013.5 mb 29.80 in1009.1 mb -
Hour Temp Dew Point Humidity Winds Wind Gusts Pressure Precip Precip Rate Daily Precip Total
09:49 AM 73.8°F23.2°C 57.1°F13.9°C 56% 1.9 mph NW3.1 kmh NW 4.1 mph6.6 kmh 29.92 in1013.2 mb 0.00 in0.0 mm 0.00 in0.0 mm 0.00 in0.0 mm
09:44 AM 73.7°F23.2°C 56.5°F13.6°C 55% 1.6 mph WNW2.6 kmh WNW 3.2 mph5.1 kmh 29.93 in1013.5 mb 0.00 in0.0 mm 0.00 in0.0 mm 0.00 in0.0 mm
09:39 AM 73.7°F23.2°C 56.5°F13.6°C 55% 2.7 mph NW4.3 kmh NW 6.3 mph10.1 kmh 29.93 in1013.5 mb 0.00 in0.0 mm 0.00 in0.0 mm 0.00 in0.0 mm
09:34 AM 73.5°F23.1°C 56.3°F13.5°C 55% 3.1 mph NNW5.0 kmh NNW 7.3 mph11.7 kmh 29.93 in1013.5 mb 0.00 in0.0 mm 0.00 in0.0 mm 0.00 in0.0 mm
09:29 AM 73.4°F23.0°C 56.7°F13.7°C 56% 2.4 mph NNW3.9 kmh NNW 4.9 mph7.9 kmh 29.93 in1013.5 mb 0.00 in0.0 mm 0.00 in0.0 mm 0.00 in0.0 mm
09:24 AM 73.2°F22.9°C 56.1°F13.4°C 55% 2.0 mph NW3.2 kmh NW 5.1 mph8.2 kmh 29.92 in1013.2 mb 0.00 in0.0 mm 0.00 in0.0 mm 0.00 in0.0 mm
09:19 AM 72.7°F22.6°C 56.1°F13.4°C 56% 5.3 mph NNW8.5 kmh NNW 7.3 mph11.7 kmh 29.93 in1013.5 mb 0.00 in0.0 mm 0.00 in0.0 mm 0.00 in0.0 mm
09:14 AM 72.7°F22.6°C 56.1°F13.4°C 56% 2.7 mph NW4.3 kmh NW 5.3 mph8.5 kmh 29.92 in1013.2 mb 0.00 in0.0 mm 0.00 in0.0 mm 0.00 in0.0 mm
09:09 AM 72.9°F22.7°C 56.3°F13.5°C 56% 5.3 mph NW8.5 kmh NW 9.2 mph14.8 kmh 29.92 in1013.2 mb 0.00 in0.0 mm 0.00 in0.0 mm 0.00 in0.0 mm
09:04 AM 72.6°F22.6°C 56.0°F13.3°C 56% 1.9 mph NW3.1 kmh NW 4.9 mph7.9 kmh 29.92 in1013.2 mb 0.00 in0.0 mm 0.00 in0.0 mm 0.00 in0.0 mm
08:59 AM 72.5°F22.5°C 56.4°F13.6°C 57% 6.2 mph N10.0 kmh N 9.1 mph14.6 kmh 29.92 in1013.2 mb 0.00 in0.0 mm 0.00 in0.0 mm 0.00 in0.0 mm
08:54 AM 72.5°F22.5°C 57.3°F14.1°C 59% 5.9 mph NNW9.5 kmh NNW 10.4 mph16.7 kmh 29.92 in1013.2 mb 0.00 in0.0 mm 0.00 in0.0 mm 0.00 in0.0 mm
08:49 AM 72.5°F22.5°C 57.3°F14.1°C 59% 4.4 mph NNW7.1 kmh NNW 7.2 mph11.6 kmh 29.92 in1013.2 mb 0.00 in0.0 mm 0.00 in0.0 mm 0.00 in0.0 mm
08:44 AM 72.2°F22.3°C 57.1°F13.9°C 59% 4.1 mph NW6.6 kmh NW 8.3 mph13.4 kmh 29.92 in1013.2 mb 0.00 in0.0 mm 0.00 in0.0 mm 0.00 in0.0 mm
08:39 AM 72.2°F22.3°C 57.5°F14.2°C 60% 2.3 mph NW3.7 kmh NW 5.1 mph8.2 kmh 29.92 in1013.2 mb 0.00 in0.0 mm 0.00 in0.0 mm 0.00 in0.0 mm
08:34 AM 72.2°F22.3°C 58.0°F14.4°C 61% 2.7 mph WNW4.3 kmh WNW 5.0 mph8.0 kmh 29.92 in1013.2 mb 0.00 in0.0 mm 0.00 in0.0 mm 0.00 in0.0 mm
08:29 AM 72.1°F22.3°C 58.3°F14.6°C 62% 3.6 mph NW5.8 kmh NW 5.4 mph8.7 kmh 29.92 in1013.2 mb 0.00 in0.0 mm 0.00 in0.0 mm 0.00 in0.0 mm
08:24 AM 71.5°F21.9°C 57.8°F14.3°C 62% 3.6 mph NW5.8 kmh NW 6.1 mph9.8 kmh 29.92 in1013.2 mb 0.00 in0.0 mm 0.00 in0.0 mm 0.00 in0.0 mm
08:19 AM 71.2°F21.8°C 57.9°F14.4°C 63% 3.2 mph NNW5.1 kmh NNW 5.9 mph9.5 kmh 29.91 in1012.9 mb 0.00 in0.0 mm 0.00 in0.0 mm 0.00 in0.0 mm
08:14 AM 70.9°F21.6°C 58.1°F14.5°C 64% 3.6 mph NNW5.8 kmh NNW 5.8 mph9.3 kmh 29.91 in1012.9 mb 0.00 in0.0 mm 0.00 in0.0 mm 0.00 in0.0 mm
08:09 AM 70.5°F21.4°C 58.6°F14.8°C 66% 3.1 mph NNW5.0 kmh NNW 5.4 mph8.7 kmh 29.91 in1012.9 mb 0.00 in0.0 mm 0.00 in0.0 mm 0.00 in0.0 mm
08:04 AM 70.4°F21.3°C 58.5°F14.7°C 66% 3.5 mph NNW5.6 kmh NNW 5.6 mph9.0 kmh 29.91 in1012.9 mb 0.00 in0.0 mm 0.00 in0.0 mm 0.00 in0.0 mm
07:59 AM 70.0°F21.1°C 58.1°F14.5°C 66% 4.3 mph NNW6.9 kmh NNW 6.6 mph10.6 kmh 29.91 in1012.9 mb 0.00 in0.0 mm 0.00 in0.0 mm 0.00 in0.0 mm
07:54 AM 69.9°F21.1°C 58.4°F14.7°C 67% 4.5 mph NNW7.2 kmh NNW 6.5 mph10.5 kmh 29.91 in1012.9 mb 0.00 in0.0 mm 0.00 in0.0 mm 0.00 in0.0 mm
07:49 AM 69.9°F21.1°C 58.4°F14.7°C 67% 4.9 mph NNW7.9 kmh NNW 7.5 mph12.1 kmh 29.91 in1012.9 mb 0.00 in0.0 mm 0.00 in0.0 mm 0.00 in0.0 mm
07:44 AM 69.7°F20.9°C 58.7°F14.8°C 68% 4.7 mph NNW7.6 kmh NNW 7.4 mph11.9 kmh 29.91 in1012.9 mb 0.00 in0.0 mm 0.00 in0.0 mm 0.00 in0.0 mm
07:39 AM 69.5°F20.8°C 58.9°F14.9°C 69% 4.0 mph NNW6.4 kmh NNW 5.8 mph9.3 kmh 29.91 in1012.9 mb 0.00 in0.0 mm 0.00 in0.0 mm 0.00 in0.0 mm
07:34 AM 69.2°F20.7°C 59.0°F15.0°C 70% 5.1 mph NNW8.2 kmh NNW 7.5 mph12.1 kmh 29.91 in1012.9 mb 0.00 in0.0 mm 0.00 in0.0 mm 0.00 in0.0 mm
07:29 AM 69.2°F20.7°C 59.4°F15.2°C 71% 4.5 mph NNW7.2 kmh NNW 7.3 mph11.7 kmh 29.91 in1012.9 mb 0.00 in0.0 mm 0.00 in0.0 mm 0.00 in0.0 mm
07:24 AM 68.9°F20.5°C 59.9°F15.5°C 73% 2.5 mph NNW4.0 kmh NNW 4.8 mph7.7 kmh 29.91 in1012.9 mb 0.00 in0.0 mm 0.00 in0.0 mm 0.00 in0.0 mm
07:19 AM 68.3°F20.2°C 59.7°F15.4°C 74% 1.9 mph NW3.1 kmh NW 3.5 mph5.6 kmh 29.91 in1012.9 mb 0.00 in0.0 mm 0.00 in0.0 mm 0.00 in0.0 mm
07:14 AM 67.6°F19.8°C 60.1°F15.6°C 77% 0.6 mph WNW1.0 kmh WNW 2.8 mph4.5 kmh 29.90 in1012.5 mb 0.00 in0.0 mm 0.00 in0.0 mm 0.00 in0.0 mm
07:09 AM 66.9°F19.4°C 60.5°F15.8°C 80% 2.6 mph NW4.2 kmh NW 5.2 mph8.4 kmh 29.90 in1012.5 mb 0.00 in0.0 mm 0.00 in0.0 mm 0.00 in0.0 mm
07:04 AM 66.5°F19.2°C 61.5°F16.4°C 84% 2.0 mph NNW3.2 kmh NNW 4.4 mph7.1 kmh 29.90 in1012.5 mb 0.00 in0.0 mm 0.00 in0.0 mm 0.00 in0.0 mm
06:59 AM 66.4°F19.1°C 62.1°F16.7°C 86% 1.8 mph SSW2.9 kmh SSW 2.6 mph4.2 kmh 29.90 in1012.5 mb 0.00 in0.0 mm 0.00 in0.0 mm 0.00 in0.0 mm
06:54 AM 65.9°F18.8°C 61.9°F16.6°C 87% 1.3 mph SSW2.1 kmh SSW 2.4 mph3.9 kmh 29.90 in1012.5 mb 0.00 in0.0 mm 0.00 in0.0 mm 0.00 in0.0 mm
06:49 AM 65.5°F18.6°C 61.2°F16.2°C 86% 1.3 mph S2.1 kmh S 2.2 mph3.5 kmh 29.90 in1012.5 mb 0.00 in0.0 mm 0.00 in0.0 mm 0.00 in0.0 mm
06:44 AM 65.5°F18.6°C 61.2°F16.2°C 86% 2.3 mph SSE3.7 kmh SSE 3.2 mph5.1 kmh 29.90 in1012.5 mb 0.00 in0.0 mm 0.00 in0.0 mm 0.00 in0.0 mm
06:39 AM 65.5°F18.6°C 61.2°F16.2°C 86% 2.1 mph SSW3.4 kmh SSW 3.2 mph5.1 kmh 29.89 in1012.2 mb 0.00 in0.0 mm 0.00 in0.0 mm 0.00 in0.0 mm
06:34 AM 64.9°F18.3°C 60.3°F15.7°C 85% 0.6 mph W1.0 kmh W 1.9 mph3.1 kmh 29.89 in1012.2 mb 0.00 in0.0 mm 0.00 in0.0 mm 0.00 in0.0 mm
06:29 AM 64.1°F17.8°C 59.8°F15.4°C 86% 0.7 mph NW1.1 kmh NW 2.2 mph3.5 kmh 29.89 in1012.2 mb 0.00 in0.0 mm 0.00 in0.0 mm 0.00 in0.0 mm
06:24 AM 63.1°F17.3°C 58.8°F14.9°C 86% 0.6 mph NNW1.0 kmh NNW 1.3 mph2.1 kmh 29.89 in1012.2 mb 0.00 in0.0 mm 0.00 in0.0 mm 0.00 in0.0 mm
06:19 AM 61.9°F16.6°C 58.0°F14.4°C 87% 1.1 mph NNW1.8 kmh NNW 2.3 mph3.7 kmh 29.89 in1012.2 mb 0.00 in0.0 mm 0.00 in0.0 mm 0.00 in0.0 mm
06:14 AM 60.7°F15.9°C 57.4°F14.1°C 89% 0.7 mph NNW1.1 kmh NNW 1.8 mph2.9 kmh 29.89 in1012.2 mb 0.00 in0.0 mm 0.00 in0.0 mm 0.00 in0.0 mm
06:09 AM 59.7°F15.4°C 57.4°F14.1°C 92% 0.6 mph NNW1.0 kmh NNW 2.0 mph3.2 kmh 29.88 in1011.9 mb 0.00 in0.0 mm 0.00 in0.0 mm 0.00 in0.0 mm
06:04 AM 58.8°F14.9°C 56.5°F13.6°C 92% Calm Calm -- 29.88 in1011.9 mb 0.00 in0.0 mm 0.00 in0.0 mm 0.00 in0.0 mm
05:59 AM 58.0°F14.4°C 55.7°F13.2°C 92% Calm Calm -- 29.88 in1011.9 mb 0.00 in0.0 mm 0.00 in0.0 mm 0.00 in0.0 mm
05:54 AM 57.7°F14.3°C 54.8°F12.7°C 90% 0.8 mph NNW1.3 kmh NNW 1.7 mph2.7 kmh 29.88 in1011.9 mb 0.00 in0.0 mm 0.00 in0.0 mm 0.00 in0.0 mm
05:49 AM 58.0°F14.4°C 54.8°F12.7°C 89% 0.2 mph WNW0.3 kmh WNW 0.5 mph0.8 kmh 29.88 in1011.9 mb 0.00 in0.0 mm 0.00 in0.0 mm 0.00 in0.0 mm
05:44 AM 58.4°F14.7°C 55.2°F12.9°C 89% Calm Calm -- 29.88 in1011.9 mb 0.00 in0.0 mm 0.00 in0.0 mm 0.00 in0.0 mm
05:39 AM 58.6°F14.8°C 55.1°F12.8°C 88% Calm Calm -- 29.87 in1011.5 mb 0.00 in0.0 mm 0.00 in0.0 mm 0.00 in0.0 mm
05:34 AM 58.8°F14.9°C 55.3°F12.9°C 88% Calm Calm 0.3 mph0.5 kmh 29.88 in1011.9 mb 0.00 in0.0 mm 0.00 in0.0 mm 0.00 in0.0 mm
05:29 AM 59.0°F15.0°C 55.1°F12.8°C 87% 1.4 mph WSW2.3 kmh WSW 1.9 mph3.1 kmh 29.87 in1011.5 mb 0.00 in0.0 mm 0.00 in0.0 mm 0.00 in0.0 mm
05:24 AM 59.1°F15.1°C 54.9°F12.7°C 86% 1.5 mph WSW2.4 kmh WSW 2.1 mph3.4 kmh 29.87 in1011.5 mb 0.00 in0.0 mm 0.00 in0.0 mm 0.00 in0.0 mm
05:19 AM 59.4°F15.2°C 54.9°F12.7°C 85% 1.7 mph WSW2.7 kmh WSW 2.1 mph3.4 kmh 29.87 in1011.5 mb 0.00 in0.0 mm 0.00 in0.0 mm 0.00 in0.0 mm
05:14 AM 59.8°F15.4°C 55.3°F12.9°C 85% Calm Calm -- 29.86 in1011.2 mb 0.00 in0.0 mm 0.00 in0.0 mm 0.00 in0.0 mm
05:09 AM 60.3°F15.7°C 55.4°F13.0°C 84% Calm Calm -- 29.86 in1011.2 mb 0.00 in0.0 mm 0.00 in0.0 mm 0.00 in0.0 mm
05:04 AM 60.7°F15.9°C 56.2°F13.4°C 85% Calm Calm -- 29.86 in1011.2 mb 0.00 in0.0 mm 0.00 in0.0 mm 0.00 in0.0 mm
04:59 AM 60.9°F16.1°C 56.0°F13.3°C 84% 1.1 mph NNW1.8 kmh NNW 1.8 mph2.9 kmh 29.85 in1010.8 mb 0.00 in0.0 mm 0.00 in0.0 mm 0.00 in0.0 mm
04:54 AM 61.2°F16.2°C 56.0°F13.3°C 83% 3.3 mph N5.3 kmh N 4.4 mph7.1 kmh 29.85 in1010.8 mb 0.00 in0.0 mm 0.00 in0.0 mm 0.00 in0.0 mm
04:49 AM 61.4°F16.3°C 56.5°F13.6°C 84% 3.8 mph NNW6.1 kmh NNW 5.5 mph8.9 kmh 29.85 in1010.8 mb 0.00 in0.0 mm 0.00 in0.0 mm 0.00 in0.0 mm
04:44 AM 61.5°F16.4°C 56.6°F13.7°C 84% 4.4 mph NNW7.1 kmh NNW 5.8 mph9.3 kmh 29.85 in1010.8 mb 0.00 in0.0 mm 0.00 in0.0 mm 0.00 in0.0 mm
04:39 AM 61.4°F16.3°C 56.5°F13.6°C 84% 4.4 mph NNW7.1 kmh NNW 7.1 mph11.4 kmh 29.84 in1010.5 mb 0.00 in0.0 mm 0.00 in0.0 mm 0.00 in0.0 mm
04:34 AM 61.4°F16.3°C 56.5°F13.6°C 84% 4.1 mph NNW6.6 kmh NNW 6.1 mph9.8 kmh 29.84 in1010.5 mb 0.00 in0.0 mm 0.00 in0.0 mm 0.00 in0.0 mm
04:29 AM 61.5°F16.4°C 56.0°F13.3°C 82% 3.6 mph NNW5.8 kmh NNW 5.7 mph9.2 kmh 29.85 in1010.8 mb 0.00 in0.0 mm 0.00 in0.0 mm 0.00 in0.0 mm
04:24 AM 61.6°F16.4°C 56.4°F13.6°C 83% 4.1 mph NNW6.6 kmh NNW 5.6 mph9.0 kmh 29.84 in1010.5 mb 0.00 in0.0 mm 0.00 in0.0 mm 0.00 in0.0 mm
04:19 AM 61.7°F16.5°C 56.5°F13.6°C 83% 4.3 mph NNW6.9 kmh NNW 6.7 mph10.8 kmh 29.84 in1010.5 mb 0.00 in0.0 mm 0.00 in0.0 mm 0.00 in0.0 mm
04:14 AM 61.7°F16.5°C 56.5°F13.6°C 83% 4.0 mph NNW6.4 kmh NNW 5.8 mph9.3 kmh 29.84 in1010.5 mb 0.00 in0.0 mm 0.00 in0.0 mm 0.00 in0.0 mm
04:09 AM 61.6°F16.4°C 56.0°F13.3°C 82% 4.0 mph NNW6.4 kmh NNW 5.4 mph8.7 kmh 29.84 in1010.5 mb 0.00 in0.0 mm 0.00 in0.0 mm 0.00 in0.0 mm
04:04 AM 61.6°F16.4°C 56.0°F13.3°C 82% 3.2 mph NNW5.1 kmh NNW 4.6 mph7.4 kmh 29.84 in1010.5 mb 0.00 in0.0 mm 0.00 in0.0 mm 0.00 in0.0 mm
03:59 AM 61.6°F16.4°C 56.4°F13.6°C 83% 3.8 mph NNW6.1 kmh NNW 5.4 mph8.7 kmh 29.84 in1010.5 mb 0.00 in0.0 mm 0.00 in0.0 mm 0.00 in0.0 mm
03:54 AM 61.5°F16.4°C 56.3°F13.5°C 83% 2.7 mph NNW4.3 kmh NNW 3.9 mph6.3 kmh 29.84 in1010.5 mb 0.00 in0.0 mm 0.00 in0.0 mm 0.00 in0.0 mm
03:49 AM 61.6°F16.4°C 56.4°F13.6°C 83% 2.8 mph NNW4.5 kmh NNW 3.8 mph6.1 kmh 29.83 in1010.2 mb 0.00 in0.0 mm 0.00 in0.0 mm 0.00 in0.0 mm
03:44 AM 61.7°F16.5°C 56.8°F13.8°C 84% 2.7 mph NNW4.3 kmh NNW 3.7 mph6.0 kmh 29.83 in1010.2 mb 0.00 in0.0 mm 0.00 in0.0 mm 0.00 in0.0 mm
03:39 AM 61.5°F16.4°C 56.6°F13.7°C 84% 2.4 mph NNW3.9 kmh NNW 3.7 mph6.0 kmh 29.83 in1010.2 mb 0.00 in0.0 mm 0.00 in0.0 mm 0.00 in0.0 mm
03:34 AM 61.4°F16.3°C 56.5°F13.6°C 84% 2.5 mph NNW4.0 kmh NNW 3.7 mph6.0 kmh 29.83 in1010.2 mb 0.00 in0.0 mm 0.00 in0.0 mm 0.00 in0.0 mm
03:29 AM 61.3°F16.3°C 56.4°F13.6°C 84% 2.6 mph NNW4.2 kmh NNW 3.4 mph5.5 kmh 29.83 in1010.2 mb 0.00 in0.0 mm 0.00 in0.0 mm 0.00 in0.0 mm
03:24 AM 61.2°F16.2°C 56.7°F13.7°C 85% 2.7 mph NNW4.3 kmh NNW 3.7 mph6.0 kmh 29.83 in1010.2 mb 0.00 in0.0 mm 0.00 in0.0 mm 0.00 in0.0 mm
03:19 AM 61.2°F16.2°C 56.7°F13.7°C 85% 2.7 mph NW4.3 kmh NW 3.8 mph6.1 kmh 29.83 in1010.2 mb 0.00 in0.0 mm 0.00 in0.0 mm 0.00 in0.0 mm
03:14 AM 61.2°F16.2°C 57.0°F13.9°C 86% 2.5 mph NNW4.0 kmh NNW 3.4 mph5.5 kmh 29.83 in1010.2 mb 0.00 in0.0 mm 0.00 in0.0 mm 0.00 in0.0 mm
03:09 AM 60.9°F16.1°C 57.0°F13.9°C 87% 0.4 mph NNW0.6 kmh NNW 1.9 mph3.1 kmh 29.82 in1009.8 mb 0.00 in0.0 mm 0.00 in0.0 mm 0.00 in0.0 mm
03:04 AM 60.5°F15.8°C 56.6°F13.7°C 87% 0.4 mph NNW0.6 kmh NNW 1.1 mph1.8 kmh 29.83 in1010.2 mb 0.00 in0.0 mm 0.00 in0.0 mm 0.00 in0.0 mm
02:59 AM 60.0°F15.6°C 56.4°F13.6°C 88% Calm Calm -- 29.83 in1010.2 mb 0.00 in0.0 mm 0.00 in0.0 mm 0.00 in0.0 mm
02:54 AM 59.5°F15.3°C 56.6°F13.7°C 90% Calm Calm -- 29.82 in1009.8 mb 0.00 in0.0 mm 0.00 in0.0 mm 0.00 in0.0 mm
02:49 AM 58.9°F14.9°C 56.3°F13.5°C 91% Calm Calm 0.3 mph0.5 kmh 29.83 in1010.2 mb 0.00 in0.0 mm 0.00 in0.0 mm 0.00 in0.0 mm
02:44 AM 58.4°F14.7°C 56.7°F13.7°C 94% 0.8 mph NW1.3 kmh NW 2.1 mph3.4 kmh 29.82 in1009.8 mb 0.00 in0.0 mm 0.00 in0.0 mm 0.00 in0.0 mm
02:39 AM 58.0°F14.4°C 56.0°F13.3°C 93% 0.1 mph W0.2 kmh W 0.3 mph0.5 kmh 29.82 in1009.8 mb 0.00 in0.0 mm 0.00 in0.0 mm 0.00 in0.0 mm
02:34 AM 57.8°F14.3°C 56.1°F13.4°C 94% Calm Calm -- 29.82 in1009.8 mb 0.00 in0.0 mm 0.00 in0.0 mm 0.00 in0.0 mm
02:29 AM 58.0°F14.4°C 56.0°F13.3°C 93% Calm Calm -- 29.82 in1009.8 mb 0.00 in0.0 mm 0.00 in0.0 mm 0.00 in0.0 mm
02:24 AM 58.2°F14.6°C 55.9°F13.3°C 92% Calm Calm -- 29.82 in1009.8 mb 0.00 in0.0 mm 0.00 in0.0 mm 0.00 in0.0 mm
02:19 AM 58.5°F14.7°C 56.2°F13.4°C 92% Calm Calm -- 29.82 in1009.8 mb 0.00 in0.0 mm 0.00 in0.0 mm 0.00 in0.0 mm
02:14 AM 58.8°F14.9°C 56.5°F13.6°C 92% Calm Calm -- 29.82 in1009.8 mb 0.00 in0.0 mm 0.00 in0.0 mm 0.00 in0.0 mm
02:09 AM 59.0°F15.0°C 56.4°F13.6°C 91% Calm Calm -- 29.81 in1009.5 mb 0.00 in0.0 mm 0.00 in0.0 mm 0.00 in0.0 mm
02:04 AM 59.2°F15.1°C 56.6°F13.7°C 91% 0.6 mph SSW1.0 kmh SSW 1.1 mph1.8 kmh 29.81 in1009.5 mb 0.00 in0.0 mm 0.00 in0.0 mm 0.00 in0.0 mm
01:59 AM 59.3°F15.2°C 56.7°F13.7°C 91% 1.7 mph SSW2.7 kmh SSW 1.9 mph3.1 kmh 29.81 in1009.5 mb 0.00 in0.0 mm 0.00 in0.0 mm 0.00 in0.0 mm
01:54 AM 59.3°F15.2°C 56.4°F13.6°C 90% 2.0 mph SSW3.2 kmh SSW 2.2 mph3.5 kmh 29.81 in1009.5 mb 0.00 in0.0 mm 0.00 in0.0 mm 0.00 in0.0 mm
01:49 AM 59.3°F15.2°C 56.4°F13.6°C 90% 2.4 mph SSW3.9 kmh SSW 2.7 mph4.3 kmh 29.81 in1009.5 mb 0.00 in0.0 mm 0.00 in0.0 mm 0.00 in0.0 mm
01:44 AM 59.6°F15.3°C 56.7°F13.7°C 90% Calm Calm -- 29.81 in1009.5 mb 0.00 in0.0 mm 0.00 in0.0 mm 0.00 in0.0 mm
01:39 AM 59.7°F15.4°C 56.5°F13.6°C 89% Calm Calm -- 29.81 in1009.5 mb 0.00 in0.0 mm 0.00 in0.0 mm 0.00 in0.0 mm
01:34 AM 59.9°F15.5°C 56.6°F13.7°C 89% Calm Calm -- 29.81 in1009.5 mb 0.00 in0.0 mm 0.00 in0.0 mm 0.00 in0.0 mm
01:29 AM 60.1°F15.6°C 56.8°F13.8°C 89% Calm Calm -- 29.81 in1009.5 mb 0.00 in0.0 mm 0.00 in0.0 mm 0.00 in0.0 mm
01:24 AM 60.4°F15.8°C 57.1°F13.9°C 89% Calm Calm -- 29.81 in1009.5 mb 0.00 in0.0 mm 0.00 in0.0 mm 0.00 in0.0 mm
01:19 AM 60.7°F15.9°C 57.1°F13.9°C 88% Calm Calm -- 29.81 in1009.5 mb 0.00 in0.0 mm 0.00 in0.0 mm 0.00 in0.0 mm
01:14 AM 61.1°F16.2°C 56.9°F13.8°C 86% Calm Calm -- 29.81 in1009.5 mb 0.00 in0.0 mm 0.00 in0.0 mm 0.00 in0.0 mm
01:09 AM 61.7°F16.5°C 57.5°F14.2°C 86% Calm Calm -- 29.81 in1009.5 mb 0.00 in0.0 mm 0.00 in0.0 mm 0.00 in0.0 mm
01:04 AM 62.1°F16.7°C 57.2°F14.0°C 84% Calm Calm -- 29.81 in1009.5 mb 0.00 in0.0 mm 0.00 in0.0 mm 0.00 in0.0 mm
12:59 AM 61.7°F16.5°C 57.1°F13.9°C 85% 0.1 mph NNW0.2 kmh NNW 0.3 mph0.5 kmh 29.80 in1009.1 mb 0.00 in0.0 mm 0.00 in0.0 mm 0.00 in0.0 mm
12:54 AM 60.7°F15.9°C 56.8°F13.8°C 87% 2.0 mph NNW3.2 kmh NNW 3.3 mph5.3 kmh 29.81 in1009.5 mb 0.00 in0.0 mm 0.00 in0.0 mm 0.00 in0.0 mm
12:49 AM 60.3°F15.7°C 56.7°F13.7°C 88% 1.7 mph NNW2.7 kmh NNW 3.0 mph4.8 kmh 29.81 in1009.5 mb 0.00 in0.0 mm 0.00 in0.0 mm 0.00 in0.0 mm
12:44 AM 60.8°F16.0°C 57.5°F14.2°C 89% Calm Calm -- 29.80 in1009.1 mb 0.00 in0.0 mm 0.00 in0.0 mm 0.00 in0.0 mm
12:39 AM 61.4°F16.3°C 57.8°F14.3°C 88% Calm Calm -- 29.80 in1009.1 mb 0.00 in0.0 mm 0.00 in0.0 mm 0.00 in0.0 mm
12:34 AM 61.8°F16.6°C 58.2°F14.6°C 88% Calm Calm -- 29.80 in1009.1 mb 0.00 in0.0 mm 0.00 in0.0 mm 0.00 in0.0 mm
12:29 AM 62.2°F16.8°C 58.0°F14.4°C 86% Calm Calm -- 29.80 in1009.1 mb 0.00 in0.0 mm 0.00 in0.0 mm 0.00 in0.0 mm
12:24 AM 62.2°F16.8°C 58.0°F14.4°C 86% Calm Calm -- 29.80 in1009.1 mb 0.00 in0.0 mm 0.00 in0.0 mm 0.00 in0.0 mm
12:19 AM 62.4°F16.9°C 58.2°F14.6°C 86% 1.1 mph NNW1.8 kmh NNW 1.8 mph2.9 kmh 29.80 in1009.1 mb 0.00 in0.0 mm 0.00 in0.0 mm 0.00 in0.0 mm
12:14 AM 62.7°F17.1°C 58.4°F14.7°C 86% 1.1 mph NNE1.8 kmh NNE 2.1 mph3.4 kmh 29.81 in1009.5 mb 0.00 in0.0 mm 0.00 in0.0 mm 0.00 in0.0 mm
12:09 AM 62.9°F17.2°C 58.6°F14.8°C 86% 0.9 mph NNW1.4 kmh NNW 1.7 mph2.7 kmh 29.80 in1009.1 mb 0.00 in0.0 mm 0.00 in0.0 mm 0.00 in0.0 mm
12:04 AM 62.9°F17.2°C 58.3°F14.6°C 85% Calm Calm -- 29.80 in1009.1 mb 0.00 in0.0 mm 0.00 in0.0 mm 0.00 in0.0 mm